Thunder radar more information blitzortung!


Radar de pluja more information rain snow radar


Visita la nostra xarxa de llocs de meteo:

Template documentation
and downloads

And another site



No particular awareness of the weather is required.    There are no Weather-warnings

Pagina Historial Weather Underground text

Diari Resum Desembre 6, 2017 Unitats:  Mètric    Imperial   Tant
« Previous Dia
SegĂźent Dia »
Diari Setmana Mensual Anual Personalitzada
  Maxima: Minima: Media:
Temperatura: 14.0 °C -0.4 °C 6.7 °C
Punt de rosada: 4.7 °C -5.8 °C -0 °C
Humitat: 75 % 52 % 63 %
Wind Speed: 11.1 km/h 0.0 km/h 2.7 km/h
RĂ fegues de vent: 11.1 km/h - -
Vent:- - South
Pression baro: 1034.8 hPa 1030.0 hPa -
Precipitacions: 0.0 mm    
Historical Graphs
 
 
Dades de taula per Desembre 6, 2017
Temps Temperatura Punt de rosada Pression baro Vent Wind Speed RĂ fegues de vent Humitat Rainfall Rate (Hourly)
00:01 2.7 °C -4.8 °C 1034.8 hPa Calm     58 % 0.0 mm
00:05 0.1 °C -5.5 °C 1033.7 hPa Calm   3.2 km/h 66 % 0.0 mm
00:06 2.6 °C -4.6 °C 1034.8 hPa Calm     59 % 0.0 mm
00:11 2.6 °C -4.6 °C 1034.8 hPa Calm     59 % 0.0 mm
00:15 0.0 °C -5.8 °C 1033.7 hPa WSW 1.6 km/h 3.2 km/h 65 % 0.0 mm
00:25 0.0 °C -5.6 °C 1033.7 hPa WSW 1.6 km/h 3.2 km/h 66 % 0.0 mm
00:35 0.0 °C -5.6 °C 1033.7 hPa WSW 1.6 km/h 3.2 km/h 66 % 0.0 mm
00:45 0.0 °C -5.6 °C 1033.7 hPa WSW 1.6 km/h 3.2 km/h 66 % 0.0 mm
00:55 0.0 °C -5.4 °C 1034.8 hPa Calm   1.6 km/h 67 % 0.0 mm
01:05 0.0 °C -5.4 °C 1034.8 hPa Calm   1.6 km/h 67 % 0.0 mm
01:15 -0.1 °C -5.5 °C 1034.8 hPa Calm     67 % 0.0 mm
01:25 -0.1 °C -5.5 °C 1034.8 hPa Calm     67 % 0.0 mm
01:35 -0.1 °C -5.3 °C 1034.8 hPa Calm     68 % 0.0 mm
01:45 -0.2 °C -5.6 °C 1034.8 hPa SW 1.6 km/h 3.2 km/h 67 % 0.0 mm
01:55 -0.4 °C -5.8 °C 1034.8 hPa Calm   3.2 km/h 67 % 0.0 mm
02:05 -0.3 °C -5.5 °C 1034.8 hPa Calm     68 % 0.0 mm
02:15 -0.4 °C -5.6 °C 1034.8 hPa Calm   1.6 km/h 68 % 0.0 mm
02:25 -0.3 °C -5.5 °C 1034.8 hPa Calm     68 % 0.0 mm
02:35 0.0 °C -5.4 °C 1034.8 hPa West 1.6 km/h 3.2 km/h 67 % 0.0 mm
02:45 0.1 °C -5.1 °C 1034.8 hPa WSW 1.6 km/h 3.2 km/h 68 % 0.0 mm
02:55 0.4 °C -5.0 °C 1034.8 hPa WSW 1.6 km/h 3.2 km/h 67 % 0.0 mm
03:05 0.8 °C -4.6 °C 1034.8 hPa SW 1.6 km/h 3.2 km/h 67 % 0.0 mm
03:15 1.8 °C -3.5 °C 1034.8 hPa Calm     68 % 0.0 mm
03:25 2.5 °C -3.0 °C 1034.8 hPa Calm   1.6 km/h 67 % 0.0 mm
03:35 3.0 °C -2.7 °C 1034.8 hPa Calm     66 % 0.0 mm
03:55 3.8 °C -2.4 °C 1034.8 hPa Calm   3.2 km/h 64 % 0.0 mm
04:05 3.5 °C -2.9 °C 1034.8 hPa ESE 1.6 km/h 3.2 km/h 63 % 0.0 mm
04:15 4.1 °C -2.3 °C 1034.8 hPa East 1.6 km/h 3.2 km/h 63 % 0.0 mm
04:25 4.0 °C -2.4 °C 1034.8 hPa SSW 1.6 km/h 3.2 km/h 63 % 0.0 mm
04:35 4.7 °C -1.9 °C 1034.8 hPa SSE 1.6 km/h 3.2 km/h 62 % 0.0 mm
04:45 4.9 °C -2.0 °C 1034.8 hPa ESE 3.2 km/h 3.2 km/h 61 % 0.0 mm
04:55 5.1 °C -2.3 °C 1034.8 hPa ENE 3.2 km/h 4.8 km/h 59 % 0.0 mm
05:05 5.5 °C -2.1 °C 1034.8 hPa ENE 1.6 km/h 3.2 km/h 58 % 0.0 mm
11:08 5.7 °C -1.9 °C 1034.8 hPa NNW 3.2 km/h 3.2 km/h 58 % 0.0 mm
11:13 6.0 °C -1.7 °C 1034.8 hPa NE 3.7 km/h 3.7 km/h 58 % 0.0 mm
11:18 6.1 °C -1.8 °C 1034.8 hPa NE 7.4 km/h 7.4 km/h 57 % 0.0 mm
11:19 6.1 °C -1.8 °C 1034.8 hPa NE 5.6 km/h 5.6 km/h 57 % 0.0 mm
11:24 6.2 °C -1.7 °C 1034.8 hPa ENE 4.2 km/h 4.2 km/h 57 % 0.0 mm
11:29 6.4 °C -1.8 °C 1034.8 hPa NE 4.2 km/h 4.2 km/h 56 % 0.0 mm
11:34 6.6 °C -1.6 °C 1034.8 hPa ENE 3.7 km/h 3.7 km/h 56 % 0.0 mm
11:39 6.9 °C -1.3 °C 1034.8 hPa ENE 4.2 km/h 4.2 km/h 56 % 0.0 mm
11:44 7.2 °C -1.0 °C 1033.7 hPa East 3.7 km/h 3.7 km/h 56 % 0.0 mm
11:49 7.3 °C -0.9 °C 1033.7 hPa NNE 3.7 km/h 3.7 km/h 56 % 0.0 mm
11:59 7.7 °C -0.8 °C 1033.7 hPa East 3.7 km/h 3.7 km/h 55 % 0.0 mm
12:04 8.1 °C -0.4 °C 1033.7 hPa ENE 2.6 km/h 2.6 km/h 55 % 0.0 mm
12:09 8.2 °C -0.3 °C 1033.7 hPa ENE 3.7 km/h 3.7 km/h 55 % 0.0 mm
12:14 8.2 °C -0.6 °C 1033.7 hPa East 3.7 km/h 3.7 km/h 54 % 0.0 mm
12:19 8.5 °C -0.3 °C 1033.7 hPa ENE 3.7 km/h 3.7 km/h 54 % 0.0 mm
12:24 8.7 °C -0.1 °C 1033.7 hPa NNW 1.9 km/h 1.9 km/h 54 % 0.0 mm
12:29 8.7 °C -0.3 °C 1033.7 hPa NE 5.6 km/h 5.6 km/h 53 % 0.0 mm
12:34 8.8 °C -0.3 °C 1033.7 hPa NE 3.7 km/h 3.7 km/h 53 % 0.0 mm
12:39 9.2 °C 0.1 °C 1033.7 hPa NNW 3.7 km/h 3.7 km/h 53 % 0.0 mm
12:44 9.3 °C 0.2 °C 1033.7 hPa NNE 3.9 km/h 3.9 km/h 53 % 0.0 mm
12:49 9.5 °C 0.4 °C 1033.7 hPa ENE 3.7 km/h 3.7 km/h 53 % 0.0 mm
12:54 9.6 °C 0.5 °C 1033.7 hPa NE 2.6 km/h 2.6 km/h 53 % 0.0 mm
12:59 9.8 °C 0.7 °C 1032.7 hPa ENE 3.7 km/h 3.7 km/h 53 % 0.0 mm
13:04 10.0 °C 0.8 °C 1032.7 hPa NE 7.4 km/h 7.4 km/h 53 % 0.0 mm
13:09 10.3 °C 1.1 °C 1032.7 hPa NNE 5.6 km/h 5.6 km/h 53 % 0.0 mm
13:14 10.4 °C 1.2 °C 1032.7 hPa ENE 3.7 km/h 3.7 km/h 53 % 0.0 mm
13:19 10.7 °C 1.2 °C 1032.7 hPa ENE 3.7 km/h 3.7 km/h 52 % 0.0 mm
13:24 10.7 °C 1.2 °C 1032.7 hPa ENE 5.0 km/h 5.0 km/h 52 % 0.0 mm
13:29 10.7 °C 1.2 °C 1032.1 hPa SE 3.7 km/h 3.7 km/h 52 % 0.0 mm
13:34 11.0 °C 1.8 °C 1032.1 hPa NNW 3.7 km/h 3.7 km/h 53 % 0.0 mm
13:44 11.1 °C 1.9 °C 1032.1 hPa North 3.9 km/h 3.9 km/h 53 % 0.0 mm
13:49 11.2 °C 1.7 °C 1032.1 hPa NNE 3.7 km/h 3.7 km/h 52 % 0.0 mm
13:54 11.4 °C 1.9 °C 1032.1 hPa NNE 3.7 km/h 3.7 km/h 52 % 0.0 mm
13:59 11.4 °C 1.9 °C 1032.1 hPa NNW 1.9 km/h   52 % 0.0 mm
14:04 11.6 °C 2.3 °C 1032.1 hPa ESE 3.7 km/h 3.7 km/h 53 % 0.0 mm
14:09 11.9 °C 2.9 °C 1032.1 hPa SW 5.3 km/h   54 % 0.0 mm
14:14 12.0 °C 2.9 °C 1032.1 hPa WSW 7.4 km/h 7.4 km/h 54 % 0.0 mm
14:19 12.2 °C 3.2 °C 1032.1 hPa SSW 5.6 km/h 5.6 km/h 54 % 0.0 mm
14:24 12.3 °C 3.2 °C 1032.1 hPa WSW 3.7 km/h 3.7 km/h 54 % 0.0 mm
14:29 12.5 °C 3.4 °C 1032.1 hPa NW 7.4 km/h 7.4 km/h 54 % 0.0 mm
14:34 12.6 °C 3.6 °C 1032.1 hPa WSW 7.4 km/h 7.4 km/h 54 % 0.0 mm
14:39 12.8 °C 3.7 °C 1032.1 hPa NW 5.6 km/h 5.6 km/h 54 % 0.0 mm
14:44 12.8 °C 3.7 °C 1032.1 hPa SSE 3.7 km/h 4.7 km/h 54 % 0.0 mm
14:49 12.9 °C 3.8 °C 1032.1 hPa SSW 9.0 km/h 9.0 km/h 54 % 0.0 mm
14:54 12.8 °C 3.4 °C 1032.1 hPa SW 3.7 km/h 3.7 km/h 53 % 0.0 mm
14:59 12.7 °C 3.3 °C 1032.1 hPa ENE 3.7 km/h 4.7 km/h 53 % 0.0 mm
15:04 12.9 °C 3.6 °C 1032.1 hPa ESE 5.8 km/h 5.8 km/h 53 % 0.0 mm
15:09 12.7 °C 3.3 °C 1032.1 hPa NE 3.7 km/h 3.7 km/h 53 % 0.0 mm
15:14 13.3 °C 3.9 °C 1032.1 hPa WNW 5.6 km/h 5.6 km/h 53 % 0.0 mm
15:19 13.6 °C 4.2 °C 1032.1 hPa West 9.3 km/h 9.3 km/h 53 % 0.0 mm
15:24 13.9 °C 4.4 °C 1032.1 hPa SSW 9.3 km/h 9.3 km/h 53 % 0.0 mm
15:29 14.0 °C 4.6 °C 1032.1 hPa SSW 7.4 km/h 7.4 km/h 53 % 0.0 mm
15:34 14.0 °C 4.6 °C 1032.1 hPa South 7.4 km/h 7.4 km/h 53 % 0.0 mm
15:39 14.0 °C 4.6 °C 1032.1 hPa SSW 5.8 km/h 5.8 km/h 53 % 0.0 mm
15:44 13.8 °C 4.4 °C 1030.7 hPa SSW 11.1 km/h 11.1 km/h 53 % 0.0 mm
15:49 13.7 °C 4.3 °C 1030.7 hPa SW 9.3 km/h 9.3 km/h 53 % 0.0 mm
15:54 13.8 °C 4.7 °C 1030.7 hPa SSW 7.4 km/h 7.4 km/h 54 % 0.0 mm
15:59 13.8 °C 4.7 °C 1030.7 hPa SSW 3.7 km/h 3.7 km/h 54 % 0.0 mm
16:04 13.8 °C 4.7 °C 1030.7 hPa WSW 7.4 km/h 7.4 km/h 54 % 0.0 mm
16:09 13.7 °C 4.6 °C 1030.7 hPa SW 7.6 km/h 7.6 km/h 54 % 0.0 mm
16:14 13.6 °C 4.4 °C 1030.7 hPa SW 7.4 km/h 7.4 km/h 54 % 0.0 mm
16:19 13.5 °C 4.1 °C 1030.7 hPa South 9.3 km/h 9.3 km/h 53 % 0.0 mm
16:24 13.3 °C 3.9 °C 1030.7 hPa WSW 9.3 km/h 9.3 km/h 53 % 0.0 mm
16:29 13.3 °C 3.9 °C 1030.7 hPa SW 5.6 km/h 5.6 km/h 53 % 0.0 mm
16:34 13.2 °C 4.1 °C 1030.7 hPa SW 5.6 km/h 5.6 km/h 54 % 0.0 mm
16:39 13.1 °C 4.0 °C 1030.7 hPa SSW 9.3 km/h 9.3 km/h 54 % 0.0 mm
16:44 13.0 °C 3.9 °C 1030.7 hPa SW 5.6 km/h 5.6 km/h 54 % 0.0 mm
16:49 12.9 °C 3.8 °C 1030.7 hPa SSW 5.6 km/h 5.6 km/h 54 % 0.0 mm
16:54 12.7 °C 3.6 °C 1030.7 hPa WSW 5.6 km/h 5.6 km/h 54 % 0.0 mm
16:59 12.6 °C 3.6 °C 1030.7 hPa SW 9.3 km/h 9.3 km/h 54 % 0.0 mm
17:04 12.3 °C 3.2 °C 1030.7 hPa SSW 6.9 km/h 6.9 km/h 54 % 0.0 mm
17:09 12.1 °C 3.1 °C 1030.7 hPa SW 7.4 km/h 7.4 km/h 54 % 0.0 mm
17:14 11.8 °C 2.8 °C 1030.7 hPa West 5.6 km/h 5.6 km/h 54 % 0.0 mm
17:19 11.7 °C 2.7 °C 1030.7 hPa SSW 4.2 km/h 4.2 km/h 54 % 0.0 mm
17:24 11.5 °C 2.5 °C 1030.7 hPa WSW 3.7 km/h 3.7 km/h 54 % 0.0 mm
17:29 11.3 °C 2.6 °C 1030.7 hPa SW 7.4 km/h 7.4 km/h 55 % 0.0 mm
17:34 11.1 °C 2.4 °C 1030.7 hPa WSW 3.7 km/h 3.7 km/h 55 % 0.0 mm
17:39 10.9 °C 2.2 °C 1030.7 hPa SW 5.6 km/h 5.6 km/h 55 % 0.0 mm
17:44 10.8 °C 2.1 °C 1030.7 hPa SW 3.7 km/h 3.7 km/h 55 % 0.0 mm
17:49 10.6 °C 2.2 °C 1030.7 hPa WSW 3.7 km/h 3.7 km/h 56 % 0.0 mm
17:54 10.4 °C 2.0 °C 1030.7 hPa West 1.9 km/h 1.9 km/h 56 % 0.0 mm
17:59 10.3 °C 2.2 °C 1030.7 hPa WSW 1.9 km/h 1.9 km/h 57 % 0.0 mm
18:04 10.1 °C 1.9 °C 1030.7 hPa WSW 2.6 km/h 2.6 km/h 57 % 0.0 mm
18:09 10.0 °C 2.1 °C 1030.7 hPa WSW 1.9 km/h 2.3 km/h 58 % 0.0 mm
18:15 2.9 °C -1.8 °C 1032.1 hPa Calm   1.6 km/h 71 % 0.0 mm
18:19 9.7 °C 2.1 °C 1030.7 hPa WSW 1.9 km/h   59 % 0.0 mm
18:24 9.5 °C 2.1 °C 1030.7 hPa WSW 1.9 km/h   60 % 0.0 mm
18:25 2.8 °C -1.9 °C 1032.1 hPa NNE 1.6 km/h 1.6 km/h 71 % 0.0 mm
18:29 9.4 °C 2.0 °C 1030.7 hPa WSW 1.9 km/h   60 % 0.0 mm
18:34 9.2 °C 2.1 °C 1030.7 hPa Calm     61 % 0.0 mm
18:35 2.8 °C -1.8 °C 1032.7 hPa NNE 1.6 km/h 3.2 km/h 72 % 0.0 mm
18:39 9.1 °C 2.2 °C 1030.7 hPa West 1.9 km/h 1.9 km/h 62 % 0.0 mm
18:44 9.0 °C 2.1 °C 1030.7 hPa WSW 2.6 km/h 2.6 km/h 62 % 0.0 mm
18:45 2.7 °C -1.8 °C 1032.7 hPa Calm   3.2 km/h 72 % 0.0 mm
18:49 8.9 °C 2.2 °C 1030.7 hPa Calm     63 % 0.0 mm
18:54 8.7 °C 2.1 °C 1030.7 hPa WSW 3.7 km/h 3.7 km/h 63 % 0.0 mm
18:55 2.6 °C -1.9 °C 1032.1 hPa Calm     72 % 0.0 mm
18:59 8.8 °C 2.3 °C 1030.7 hPa SW 3.7 km/h 3.7 km/h 64 % 0.0 mm
19:04 8.7 °C 2.3 °C 1030.7 hPa WSW 3.5 km/h 3.5 km/h 64 % 0.0 mm
19:05 2.3 °C -2.4 °C 1032.1 hPa NNW 1.6 km/h 3.2 km/h 71 % 0.0 mm
19:09 8.7 °C 2.3 °C 1030.7 hPa SW 1.9 km/h 1.9 km/h 64 % 0.0 mm
19:14 8.7 °C 2.3 °C 1030.7 hPa SW 3.7 km/h 3.7 km/h 64 % 0.0 mm
19:15 2.2 °C -2.5 °C 1032.1 hPa Calm   1.6 km/h 71 % 0.0 mm
19:19 8.6 °C 2.4 °C 1030.7 hPa WSW 1.9 km/h 1.9 km/h 65 % 0.0 mm
19:24 8.5 °C 2.3 °C 1030.7 hPa WSW 3.7 km/h 3.7 km/h 65 % 0.0 mm
19:25 2.2 °C -2.5 °C 1030.7 hPa WNW 1.6 km/h 3.2 km/h 71 % 0.0 mm
19:29 8.5 °C 2.3 °C 1032.1 hPa WSW 1.9 km/h 1.9 km/h 65 % 0.0 mm
19:34 8.4 °C 2.4 °C 1032.1 hPa Calm     66 % 0.0 mm
19:35 2.2 °C -2.3 °C 1032.1 hPa Calm   3.2 km/h 72 % 0.0 mm
19:39 8.3 °C 2.3 °C 1032.1 hPa West 2.3 km/h 2.3 km/h 66 % 0.0 mm
19:44 8.2 °C 2.4 °C 1032.1 hPa Calm     67 % 0.0 mm
19:45 2.2 °C -2.3 °C 1032.1 hPa WSW 1.6 km/h 3.2 km/h 72 % 0.0 mm
19:49 8.1 °C 2.3 °C 1032.1 hPa SW 1.9 km/h 1.9 km/h 67 % 0.0 mm
19:54 8.0 °C 2.2 °C 1032.1 hPa WSW 1.9 km/h 1.9 km/h 67 % 0.0 mm
19:55 2.1 °C -2.4 °C 1030.7 hPa Calm   1.6 km/h 72 % 0.0 mm
19:59 8.0 °C 2.2 °C 1032.1 hPa West 2.6 km/h 2.6 km/h 67 % 0.0 mm
20:04 7.9 °C 2.2 °C 1032.1 hPa West 3.7 km/h 3.7 km/h 67 % 0.0 mm
20:05 2.2 °C -2.3 °C 1030.7 hPa Calm     72 % 0.0 mm
20:09 7.7 °C 1.6 °C 1032.1 hPa West 3.9 km/h 4.2 km/h 65 % 0.0 mm
20:14 7.7 °C 1.6 °C 1032.1 hPa WSW 3.7 km/h 3.7 km/h 65 % 0.0 mm
20:15 2.2 °C -2.5 °C 1030.7 hPa West 1.6 km/h 1.6 km/h 71 % 0.0 mm
20:19 7.7 °C 1.6 °C 1032.1 hPa West 1.9 km/h   65 % 0.0 mm
20:24 7.5 °C 1.6 °C 1032.1 hPa WSW 3.7 km/h   66 % 0.0 mm
20:25 2.2 °C -2.3 °C 1030.7 hPa Calm     72 % 0.0 mm
20:29 7.4 °C 1.4 °C 1032.1 hPa Calm     66 % 0.0 mm
20:34 7.2 °C 1.3 °C 1032.1 hPa ENE 3.2 km/h 3.2 km/h 66 % 0.0 mm
20:35 2.2 °C -2.2 °C 1030.7 hPa Calm     73 % 0.0 mm
20:39 6.9 °C 1.2 °C 1032.1 hPa Calm     67 % 0.0 mm
20:44 6.6 °C 0.9 °C 1032.1 hPa ENE 3.7 km/h 3.7 km/h 67 % 0.0 mm
20:45 2.4 °C -1.9 °C 1030.7 hPa Calm     73 % 0.0 mm
20:49 6.5 °C 0.8 °C 1032.1 hPa Calm     67 % 0.0 mm
20:54 6.5 °C 1.0 °C 1032.1 hPa ENE 1.9 km/h 1.9 km/h 68 % 0.0 mm
20:55 2.5 °C -1.7 °C 1030.7 hPa Calm   3.2 km/h 74 % 0.0 mm
20:59 6.4 °C 0.9 °C 1032.1 hPa ENE 3.7 km/h 3.7 km/h 68 % 0.0 mm
21:04 6.3 °C 0.8 °C 1032.1 hPa Calm     68 % 0.0 mm
21:05 2.4 °C -1.9 °C 1030.7 hPa Calm   1.6 km/h 73 % 0.0 mm
21:09 6.0 °C 0.6 °C 1032.1 hPa WSW 3.9 km/h   68 % 0.0 mm
21:14 5.8 °C 0.2 °C 1032.1 hPa West 1.9 km/h   67 % 0.0 mm
21:15 2.3 °C -1.9 °C 1030.7 hPa Calm     74 % 0.0 mm
21:19 5.6 °C -0.1 °C 1032.1 hPa West 2.3 km/h 2.3 km/h 67 % 0.0 mm
21:24 5.5 °C -0.2 °C 1032.1 hPa Calm     67 % 0.0 mm
21:25 2.2 °C -2.2 °C 1030.7 hPa WNW 3.2 km/h 3.2 km/h 73 % 0.0 mm
21:29 5.3 °C -0.1 °C 1032.1 hPa Calm     68 % 0.0 mm
21:34 5.2 °C -0.4 °C 1032.1 hPa Calm     67 % 0.0 mm
21:35 2.1 °C -2.2 °C 1030.7 hPa Calm   3.2 km/h 73 % 0.0 mm
21:39 5.0 °C -0.6 °C 1032.1 hPa Calm     67 % 0.0 mm
21:44 5.0 °C -0.6 °C 1032.1 hPa Calm     67 % 0.0 mm
21:45 2.3 °C -2.1 °C 1030.7 hPa NW 1.6 km/h 1.6 km/h 73 % 0.0 mm
21:49 5.1 °C -0.6 °C 1032.1 hPa West 1.9 km/h 1.9 km/h 67 % 0.0 mm
21:51 5.1 °C -0.6 °C 1032.1 hPa West 1.9 km/h   67 % 0.0 mm
21:55 2.2 °C -1.9 °C 1030.7 hPa Calm   1.6 km/h 74 % 0.0 mm
21:56 5.1 °C -0.6 °C 1032.1 hPa Calm     67 % 0.0 mm
22:01 5.2 °C -0.2 °C 1032.1 hPa Calm     68 % 0.0 mm
22:05 2.1 °C -2.1 °C 1030.7 hPa Calm     74 % 0.0 mm
22:06 5.2 °C -0.1 °C 1032.1 hPa WNW 2.6 km/h 2.6 km/h 69 % 0.0 mm
22:11 5.0 °C -0.2 °C 1032.1 hPa ENE 3.7 km/h 3.7 km/h 69 % 0.0 mm
22:15 2.1 °C -2.1 °C 1030.7 hPa Calm   1.6 km/h 74 % 0.0 mm
22:16 4.9 °C -0.3 °C 1032.1 hPa ENE 2.6 km/h   69 % 0.0 mm
22:21 4.7 °C -0.5 °C 1032.1 hPa Calm     69 % 0.0 mm
22:25 2.0 °C -2.2 °C 1030.7 hPa Calm     74 % 0.0 mm
22:26 4.7 °C -0.3 °C 1032.1 hPa ENE 2.3 km/h   70 % 0.0 mm
22:31 4.6 °C -0.4 °C 1032.1 hPa Calm     70 % 0.0 mm
22:35 1.8 °C -2.3 °C 1030.7 hPa SW 1.6 km/h 3.2 km/h 74 % 0.0 mm
22:36 4.5 °C -0.5 °C 1032.1 hPa Calm     70 % 0.0 mm
22:41 4.5 °C -0.5 °C 1032.1 hPa East 3.5 km/h 3.5 km/h 70 % 0.0 mm
22:45 1.8 °C -2.3 °C 1030.7 hPa NE 1.6 km/h 3.2 km/h 74 % 0.0 mm
22:46 4.4 °C -0.6 °C 1032.1 hPa ENE 2.6 km/h 2.6 km/h 70 % 0.0 mm
22:51 4.3 °C -0.5 °C 1032.1 hPa East 3.7 km/h 3.7 km/h 71 % 0.0 mm
22:55 1.7 °C -2.3 °C 1030.7 hPa NE 1.6 km/h 3.2 km/h 75 % 0.0 mm
22:56 4.1 °C -0.9 °C 1032.1 hPa East 1.9 km/h   70 % 0.0 mm
23:01 4.0 °C -1.0 °C 1032.1 hPa Calm     70 % 0.0 mm
23:02 4.0 °C -1.0 °C 1032.1 hPa Calm     70 % 0.0 mm
23:05 1.7 °C -2.3 °C 1030.7 hPa Calm     75 % 0.0 mm
23:07 3.8 °C -1.2 °C 1032.1 hPa Calm     70 % 0.0 mm
23:12 3.7 °C -1.3 °C 1032.1 hPa Calm     70 % 0.0 mm
23:15 1.5 °C -2.4 °C 1030.7 hPa Calm     75 % 0.0 mm
23:17 3.6 °C -1.4 °C 1032.1 hPa Calm     70 % 0.0 mm
23:22 3.5 °C -1.4 °C 1032.1 hPa Calm     70 % 0.0 mm
23:25 1.4 °C -2.6 °C 1030.0 hPa Calm     75 % 0.0 mm
23:27 3.4 °C -1.4 °C 1032.1 hPa Calm     71 % 0.0 mm
23:32 3.4 °C -1.4 °C 1032.7 hPa Calm     71 % 0.0 mm
23:35 1.5 °C -2.4 °C 1030.7 hPa Calm     75 % 0.0 mm
23:37 3.4 °C -1.4 °C 1032.7 hPa Calm     71 % 0.0 mm
23:42 3.4 °C -1.4 °C 1032.7 hPa Calm     71 % 0.0 mm
23:45 1.4 °C -2.6 °C 1030.7 hPa SSW 1.6 km/h 3.2 km/h 75 % 0.0 mm
23:47 3.3 °C -1.3 °C 1032.1 hPa Calm     72 % 0.0 mm
23:52 3.2 °C -1.6 °C 1032.1 hPa North 1.9 km/h   71 % 0.0 mm
23:55 1.4 °C -2.6 °C 1030.7 hPa NW 1.6 km/h 3.2 km/h 75 % 0.0 mm
23:57 3.2 °C -1.6 °C 1032.1 hPa NNE 3.7 km/h 3.7 km/h 71 % 0.0 mm
Meteo Sesrovires
Elogis d' Weather Underground - 3.75 mb

Guio original per  Jim McMurry - jmcmurry@mwt.net Adaptat per a la plantilla per  Wim van der Kuil - Leuven-Template.eu

Trobareu la nostra informacio del temps tambe a:

Weather Underground

AWEKAS